createdAt,value
2023-09-13T00:00:03.766Z,6.58
2023-09-13T00:02:31.549Z,7.11
2023-09-13T00:04:59.380Z,7.07
2023-09-13T00:07:27.202Z,6.57
2023-09-13T00:09:55.025Z,6.92
2023-09-13T00:12:22.836Z,6.95
2023-09-13T00:14:50.635Z,7.35
2023-09-13T00:17:21.629Z,7.27
2023-09-13T00:19:49.348Z,7.19
2023-09-13T00:22:17.232Z,6.80
2023-09-13T00:24:45.036Z,7.10
2023-09-13T00:27:12.809Z,7.04
2023-09-13T00:29:40.635Z,7.20
2023-09-13T00:32:08.518Z,7.19
2023-09-13T00:34:37.626Z,6.68
2023-09-13T00:37:05.729Z,7.20
2023-09-13T00:39:36.492Z,6.82
2023-09-13T00:42:04.292Z,7.01
2023-09-13T00:44:32.398Z,7.35
2023-09-13T00:47:00.274Z,7.57
2023-09-13T00:49:28.843Z,7.65
2023-09-13T00:51:59.869Z,7.68
2023-09-13T00:54:28.989Z,7.99
2023-09-13T00:56:57.070Z,7.39
2023-09-13T00:59:25.532Z,7.64
2023-09-13T01:01:53.512Z,7.53
2023-09-13T01:04:22.152Z,7.48
2023-09-13T01:06:49.532Z,8.23
2023-09-13T01:09:19.468Z,7.81
2023-09-13T01:11:47.250Z,7.75
2023-09-13T01:14:14.949Z,8.17
2023-09-13T01:16:50.816Z,8.08
2023-09-13T01:19:33.668Z,7.88
2023-09-13T01:22:13.798Z,8.12
2023-09-13T01:24:58.574Z,8.42
2023-09-13T01:27:39.767Z,8.28
2023-09-13T01:30:10.866Z,8.20
2023-09-13T01:32:38.716Z,7.83
2023-09-13T01:35:06.879Z,8.41
2023-09-13T01:37:35.040Z,8.55
2023-09-13T01:40:04.775Z,8.89
2023-09-13T01:42:33.379Z,9.92
2023-09-13T01:45:02.605Z,10.03
2023-09-13T01:47:33.050Z,9.58
2023-09-13T01:50:01.536Z,10.29
2023-09-13T01:52:30.830Z,10.32
2023-09-13T01:54:58.632Z,9.73
2023-09-13T01:57:26.622Z,10.39
2023-09-13T01:59:54.594Z,10.24
2023-09-13T02:02:22.416Z,10.28
2023-09-13T02:04:51.654Z,10.26
2023-09-13T02:07:19.533Z,10.20
2023-09-13T02:09:48.245Z,10.14
2023-09-13T02:12:16.040Z,10.03
2023-09-13T02:14:43.959Z,10.53
2023-09-13T02:17:11.740Z,10.73
2023-09-13T02:19:39.456Z,9.96
2023-09-13T02:22:09.186Z,10.21
2023-09-13T02:24:37.930Z,9.61
2023-09-13T02:27:06.816Z,9.55
2023-09-13T02:29:34.649Z,9.69
2023-09-13T02:32:02.611Z,9.99
2023-09-13T02:34:30.815Z,9.97
2023-09-13T02:36:59.683Z,9.89
2023-09-13T02:39:39.068Z,9.77
2023-09-13T02:42:08.230Z,9.97
2023-09-13T02:44:37.041Z,9.78
2023-09-13T02:47:05.176Z,9.82
2023-09-13T02:49:34.586Z,9.85
2023-09-13T02:52:02.499Z,9.67
2023-09-13T02:54:30.273Z,10.31
2023-09-13T02:56:59.468Z,9.99
2023-09-13T02:59:27.242Z,10.26
2023-09-13T03:01:55.226Z,10.20
2023-09-13T03:04:23.254Z,10.08
2023-09-13T03:06:51.120Z,10.22
2023-09-13T03:09:18.875Z,10.00
2023-09-13T03:11:46.633Z,9.85
2023-09-13T03:14:15.767Z,10.26
2023-09-13T03:16:43.592Z,10.57
2023-09-13T03:19:11.895Z,10.20
2023-09-13T03:21:39.705Z,10.60
2023-09-13T03:24:10.793Z,10.15
2023-09-13T03:26:40.652Z,10.22
2023-09-13T03:29:08.433Z,10.17
2023-09-13T03:31:39.416Z,10.25
2023-09-13T03:34:07.476Z,10.62
2023-09-13T03:36:35.396Z,10.39
2023-09-13T03:39:03.854Z,10.84
2023-09-13T03:41:32.217Z,10.11
2023-09-13T03:44:00.424Z,10.14
2023-09-13T03:46:28.838Z,10.13
2023-09-13T03:48:58.324Z,10.04
2023-09-13T03:51:26.142Z,9.74
2023-09-13T03:53:53.962Z,9.74
2023-09-13T03:56:21.861Z,10.01
2023-09-13T03:58:49.613Z,9.87
2023-09-13T04:01:17.580Z,9.90
2023-09-13T04:03:45.647Z,9.77
2023-09-13T04:06:15.425Z,9.84
2023-09-13T04:08:43.588Z,10.62
2023-09-13T04:11:11.518Z,10.10
2023-09-13T04:13:39.405Z,9.68
2023-09-13T04:16:09.015Z,9.62
2023-09-13T04:18:36.816Z,10.14
2023-09-13T04:21:04.855Z,10.47
2023-09-13T04:23:34.046Z,10.21
2023-09-13T04:26:01.923Z,10.36
2023-09-13T04:28:29.787Z,10.30
2023-09-13T04:30:59.640Z,9.80
2023-09-13T04:33:42.535Z,10.48
2023-09-13T04:36:10.635Z,10.46
2023-09-13T04:38:39.902Z,10.67
2023-09-13T04:41:11.456Z,10.41
2023-09-13T04:43:39.278Z,10.22
2023-09-13T04:46:08.694Z,10.23
2023-09-13T04:48:37.492Z,10.13
2023-09-13T04:51:05.968Z,10.98
2023-09-13T04:53:34.483Z,11.04
2023-09-13T04:56:03.849Z,11.08
2023-09-13T04:58:33.278Z,11.13
2023-09-13T05:01:02.426Z,10.87
2023-09-13T05:03:30.290Z,10.45
2023-09-13T05:05:58.529Z,9.99
2023-09-13T05:08:26.266Z,10.35
2023-09-13T05:10:55.310Z,10.26
2023-09-13T05:13:24.514Z,9.95
2023-09-13T05:15:52.706Z,9.76
2023-09-13T05:18:20.519Z,10.09
2023-09-13T05:20:48.258Z,9.78
2023-09-13T05:23:15.990Z,9.82
2023-09-13T05:25:46.982Z,9.47
2023-09-13T05:28:15.320Z,9.54
2023-09-13T05:30:48.218Z,9.47
2023-09-13T05:33:16.159Z,8.96
2023-09-13T05:35:43.939Z,9.25
2023-09-13T05:38:11.636Z,9.07
2023-09-13T05:40:44.899Z,9.08
2023-09-13T05:43:12.660Z,8.67
2023-09-13T05:45:41.810Z,8.46
2023-09-13T05:48:11.087Z,8.75
2023-09-13T05:50:38.973Z,9.28
2023-09-13T05:53:06.718Z,9.00
2023-09-13T05:55:34.584Z,9.29
2023-09-13T05:58:02.470Z,8.88
2023-09-13T06:00:34.991Z,8.94
2023-09-13T06:03:02.745Z,8.86
2023-09-13T06:05:32.381Z,8.75
2023-09-13T06:08:00.208Z,8.60
2023-09-13T06:10:28.385Z,8.86
2023-09-13T06:12:56.436Z,8.75
2023-09-13T06:15:24.216Z,8.76
2023-09-13T06:17:52.904Z,8.26
2023-09-13T06:20:20.699Z,8.78
2023-09-13T06:22:49.835Z,9.13
2023-09-13T06:25:18.553Z,8.70
2023-09-13T06:27:46.420Z,8.92
2023-09-13T06:30:15.098Z,9.02
2023-09-13T06:32:43.734Z,9.38
2023-09-13T06:35:15.707Z,9.93
2023-09-13T06:37:45.939Z,9.11
2023-09-13T06:40:16.186Z,8.22
2023-09-13T06:45:23.782Z,6.64
2023-09-13T06:47:55.108Z,6.62
2023-09-13T06:50:30.867Z,6.31
2023-09-13T06:53:26.552Z,6.59
2023-09-13T06:56:02.406Z,6.24
2023-09-13T06:58:34.058Z,6.93
2023-09-13T07:03:35.604Z,6.50
2023-09-13T07:06:04.447Z,6.58
2023-09-13T07:08:32.416Z,5.87
2023-09-13T07:11:02.754Z,5.95
2023-09-13T07:13:30.881Z,6.05
2023-09-13T07:15:58.655Z,5.99
2023-09-13T07:18:29.293Z,5.99
2023-09-13T07:20:57.862Z,5.88
2023-09-13T07:23:25.641Z,6.13
2023-09-13T07:25:53.394Z,6.25
2023-09-13T07:28:22.782Z,6.26
2023-09-13T07:30:53.616Z,5.99
2023-09-13T07:33:21.537Z,6.64
2023-09-13T07:35:49.274Z,6.13
2023-09-13T07:38:17.082Z,6.16
2023-09-13T07:40:44.943Z,6.19
2023-09-13T07:43:12.751Z,6.03
2023-09-13T07:45:44.544Z,5.88
2023-09-13T07:48:12.377Z,5.73
2023-09-13T07:50:41.978Z,5.77
2023-09-13T07:53:11.630Z,5.61
2023-09-13T07:55:40.163Z,4.92
2023-09-13T07:58:08.526Z,3.87
2023-09-13T08:00:36.937Z,3.72
2023-09-13T08:03:06.625Z,3.80
2023-09-13T08:05:34.568Z,3.99
2023-09-13T08:08:02.363Z,3.80
2023-09-13T08:10:30.178Z,3.77
2023-09-13T08:12:57.921Z,3.88
2023-09-13T08:15:38.856Z,4.08
2023-09-13T08:18:21.069Z,4.02
2023-09-13T08:20:48.938Z,3.98
2023-09-13T08:23:17.450Z,4.58
2023-09-13T08:25:46.379Z,4.20
2023-09-13T08:28:14.224Z,4.44
2023-09-13T08:30:42.017Z,4.65
2023-09-13T08:33:13.229Z,4.65
2023-09-13T08:35:42.621Z,4.98
2023-09-13T08:38:10.535Z,4.96
2023-09-13T08:40:42.140Z,5.36
2023-09-13T08:43:10.830Z,4.84
2023-09-13T08:45:40.247Z,4.56
2023-09-13T08:48:09.100Z,4.58
2023-09-13T08:50:38.623Z,4.66
2023-09-13T08:53:07.807Z,4.45
2023-09-13T08:55:37.470Z,4.74
2023-09-13T08:58:05.498Z,4.57
2023-09-13T09:00:38.289Z,4.67
2023-09-13T09:03:08.287Z,4.98
2023-09-13T09:05:37.673Z,4.75
2023-09-13T09:08:06.455Z,4.75
2023-09-13T09:10:35.969Z,4.57
2023-09-13T09:13:06.193Z,4.49
2023-09-13T09:15:37.004Z,4.17
2023-09-13T09:18:08.263Z,4.11
2023-09-13T09:20:36.287Z,4.24
2023-09-13T09:23:06.324Z,4.05
2023-09-13T09:25:35.409Z,4.14
2023-09-13T09:28:05.680Z,4.19
2023-09-13T09:30:34.560Z,3.91
2023-09-13T09:33:02.997Z,3.87
2023-09-13T09:35:30.999Z,3.87
2023-09-13T09:38:00.647Z,3.70
2023-09-13T09:40:30.031Z,3.80
2023-09-13T09:42:59.968Z,3.94
2023-09-13T09:45:27.760Z,3.72
2023-09-13T09:47:58.714Z,3.75
2023-09-13T09:50:26.865Z,3.73
2023-09-13T09:52:54.894Z,3.84
2023-09-13T09:55:24.560Z,3.84
2023-09-13T09:57:54.447Z,3.81
2023-09-13T10:00:23.921Z,3.81
2023-09-13T10:02:52.033Z,3.91
2023-09-13T10:05:20.408Z,3.77
2023-09-13T10:07:52.167Z,3.51
2023-09-13T10:10:29.708Z,3.90
2023-09-13T10:12:57.495Z,3.89
2023-09-13T10:15:29.743Z,3.93
2023-09-13T10:18:04.378Z,3.88
2023-09-13T10:20:36.319Z,4.18
2023-09-13T10:23:09.407Z,4.41
2023-09-13T10:25:39.432Z,4.60
2023-09-13T10:28:09.697Z,4.21
2023-09-13T10:30:38.874Z,4.79
2023-09-13T10:33:13.320Z,4.68
2023-09-13T10:35:43.902Z,4.52
2023-09-13T10:38:14.840Z,4.91
2023-09-13T10:40:47.991Z,4.93
2023-09-13T10:43:18.458Z,4.65
2023-09-13T10:45:48.101Z,4.62
2023-09-13T10:48:19.995Z,4.70
2023-09-13T10:50:48.038Z,4.28
2023-09-13T10:53:19.484Z,3.89
2023-09-13T10:55:47.834Z,3.35
2023-09-13T10:58:25.187Z,3.25
2023-09-13T11:00:56.209Z,3.20
2023-09-13T11:03:24.924Z,3.54
2023-09-13T11:05:55.680Z,3.36
2023-09-13T11:08:31.016Z,3.50
2023-09-13T11:11:08.513Z,3.71
2023-09-13T11:13:36.753Z,3.80
2023-09-13T11:16:06.022Z,3.67
2023-09-13T11:18:47.734Z,3.92
2023-09-13T11:21:22.369Z,4.20
2023-09-13T11:24:02.712Z,3.83
2023-09-13T11:26:45.504Z,4.06
2023-09-13T11:29:25.798Z,3.78
2023-09-13T11:32:05.220Z,3.87
2023-09-13T11:34:34.587Z,4.24
2023-09-13T11:37:06.063Z,4.35
2023-09-13T11:39:36.788Z,4.16
2023-09-13T11:42:06.818Z,4.30
2023-09-13T11:44:34.792Z,4.36
2023-09-13T11:47:04.655Z,4.03
2023-09-13T11:49:37.690Z,4.52
2023-09-13T11:55:04.720Z,4.38
2023-09-13T11:57:59.784Z,4.08
2023-09-13T12:00:32.132Z,3.77
2023-09-13T12:03:03.944Z,3.53
2023-09-13T12:05:49.237Z,4.09
2023-09-13T12:08:22.688Z,4.62
2023-09-13T12:10:56.235Z,3.70
2023-09-13T12:13:58.084Z,4.12
2023-09-13T12:16:32.211Z,4.31
2023-09-13T12:19:04.146Z,4.39
2023-09-13T12:21:35.907Z,4.91
2023-09-13T12:24:07.438Z,4.54
2023-09-13T12:26:35.338Z,4.18
2023-09-13T12:29:03.104Z,4.15
2023-09-13T12:31:30.912Z,3.99
2023-09-13T12:34:06.303Z,4.04
2023-09-13T12:36:34.603Z,4.27
2023-09-13T12:39:16.666Z,3.97
2023-09-13T12:41:48.580Z,4.10
2023-09-13T12:44:19.416Z,4.45
2023-09-13T12:46:47.350Z,3.91
2023-09-13T12:49:16.604Z,4.13
2023-09-13T12:51:47.361Z,4.00
2023-09-13T12:54:18.100Z,4.49
2023-09-13T12:56:45.852Z,4.73
2023-09-13T12:59:13.640Z,4.40
2023-09-13T13:01:41.467Z,4.31
2023-09-13T13:04:11.122Z,4.26
2023-09-13T13:06:53.939Z,4.26
2023-09-13T13:09:23.912Z,4.83
2023-09-13T13:11:53.784Z,4.55
2023-09-13T13:14:24.507Z,4.58
2023-09-13T13:16:56.176Z,4.65
2023-09-13T13:19:49.393Z,4.66
2023-09-13T13:22:19.679Z,4.66
2023-09-13T13:24:49.034Z,4.55
2023-09-13T13:27:16.893Z,4.50
2023-09-13T13:29:47.468Z,4.18
2023-09-13T13:32:15.632Z,4.40
2023-09-13T13:34:43.536Z,4.66
2023-09-13T13:37:11.419Z,4.39
2023-09-13T13:39:39.354Z,4.58
2023-09-13T13:42:09.485Z,4.80
2023-09-13T13:44:38.849Z,4.42
2023-09-13T13:47:06.691Z,5.03
2023-09-13T13:49:34.476Z,4.78
2023-09-13T13:52:02.266Z,4.36
2023-09-13T13:54:30.062Z,4.39
2023-09-13T13:56:57.942Z,4.14
2023-09-13T13:59:27.129Z,4.11
2023-09-13T14:01:55.230Z,4.05
2023-09-13T14:04:22.971Z,4.33
2023-09-13T14:06:50.742Z,3.90
2023-09-13T14:09:23.829Z,4.05
2023-09-13T14:11:51.586Z,4.12
2023-09-13T14:14:24.407Z,4.56
2023-09-13T14:16:55.249Z,4.40
2023-09-13T14:19:23.110Z,4.26
2023-09-13T14:21:50.889Z,4.42
2023-09-13T14:24:18.997Z,4.46
2023-09-13T14:26:47.138Z,4.18
2023-09-13T14:29:16.261Z,4.23
2023-09-13T14:31:44.419Z,4.26
2023-09-13T14:34:13.584Z,4.18
2023-09-13T14:36:41.368Z,4.00
2023-09-13T14:39:09.149Z,3.98
2023-09-13T14:41:36.871Z,4.19
2023-09-13T14:44:04.806Z,4.10
2023-09-13T14:46:35.472Z,4.18
2023-09-13T14:49:04.123Z,4.52
2023-09-13T14:51:33.544Z,4.50
2023-09-13T14:54:01.338Z,4.35
2023-09-13T14:56:29.276Z,4.28
2023-09-13T14:58:57.000Z,4.25
2023-09-13T15:01:25.110Z,4.40
2023-09-13T15:03:53.027Z,4.00
2023-09-13T15:06:21.173Z,4.16
2023-09-13T15:08:59.211Z,3.93
2023-09-13T15:11:29.556Z,4.19
2023-09-13T15:13:57.301Z,4.51
2023-09-13T15:16:32.108Z,4.23
2023-09-13T15:19:00.142Z,4.22
2023-09-13T15:21:28.544Z,4.32
2023-09-13T15:23:57.954Z,4.46
2023-09-13T15:26:26.042Z,4.39
2023-09-13T15:28:55.318Z,4.36
2023-09-13T15:31:29.805Z,4.02
2023-09-13T15:34:09.509Z,4.46
2023-09-13T15:36:37.390Z,5.46
2023-09-13T15:39:06.742Z,5.37
2023-09-13T15:41:34.487Z,5.37
2023-09-13T15:44:04.692Z,5.46
2023-09-13T15:46:35.535Z,5.12
2023-09-13T15:49:06.142Z,5.02
2023-09-13T15:51:36.223Z,5.45
2023-09-13T15:54:04.076Z,5.07
2023-09-13T15:56:33.173Z,5.22
2023-09-13T15:59:01.145Z,5.18
2023-09-13T16:01:32.265Z,4.85
2023-09-13T16:04:01.408Z,5.26
2023-09-13T16:06:29.333Z,5.12
2023-09-13T16:08:58.022Z,5.25
2023-09-13T16:11:32.003Z,5.20
2023-09-13T16:14:01.105Z,5.35
2023-09-13T16:16:28.907Z,5.29
2023-09-13T16:18:56.742Z,5.31
2023-09-13T16:21:25.682Z,5.12
2023-09-13T16:23:53.676Z,5.48
2023-09-13T16:26:21.912Z,5.22
2023-09-13T16:28:56.333Z,4.74
2023-09-13T16:31:25.524Z,3.98
2023-09-13T16:33:53.423Z,3.94
2023-09-13T16:36:21.281Z,4.30
2023-09-13T16:38:49.055Z,4.43
2023-09-13T16:41:17.811Z,4.12
2023-09-13T16:43:45.564Z,4.50
2023-09-13T16:46:13.443Z,4.36
2023-09-13T16:48:42.816Z,4.27
2023-09-13T16:51:10.621Z,4.35
2023-09-13T16:53:38.375Z,3.93
2023-09-13T16:56:06.179Z,3.77
2023-09-13T16:58:33.941Z,3.86
2023-09-13T17:01:01.910Z,3.59
2023-09-13T17:03:29.916Z,4.20
2023-09-13T17:05:59.902Z,4.00
2023-09-13T17:08:27.675Z,3.93
2023-09-13T17:10:57.647Z,3.65
2023-09-13T17:13:26.988Z,3.59
2023-09-13T17:16:05.020Z,3.58
2023-09-13T17:18:41.827Z,3.63
2023-09-13T17:21:10.958Z,3.65
2023-09-13T17:23:38.761Z,3.90
2023-09-13T17:26:09.379Z,3.63
2023-09-13T17:28:37.242Z,3.99
2023-09-13T17:31:05.088Z,3.93
2023-09-13T17:33:33.007Z,3.86
2023-09-13T17:36:01.547Z,3.82
2023-09-13T17:38:30.892Z,3.91
2023-09-13T17:40:58.666Z,4.08
2023-09-13T17:43:26.408Z,3.75
2023-09-13T17:45:54.426Z,3.83
2023-09-13T17:48:22.349Z,3.93
2023-09-13T17:50:50.307Z,4.12
2023-09-13T17:53:21.942Z,4.07
2023-09-13T17:55:54.375Z,4.05
2023-09-13T17:58:22.157Z,4.02
2023-09-13T18:00:50.007Z,4.23
2023-09-13T18:03:18.813Z,4.07
2023-09-13T18:05:46.695Z,4.09
2023-09-13T18:08:15.364Z,4.04
2023-09-13T18:10:43.175Z,4.37
2023-09-13T18:13:12.444Z,4.54
2023-09-13T18:15:40.245Z,4.19
2023-09-13T18:18:08.349Z,4.03
2023-09-13T18:20:36.595Z,4.88
2023-09-13T18:23:04.440Z,4.41
2023-09-13T18:25:33.329Z,4.14
2023-09-13T18:28:01.150Z,4.20
2023-09-13T18:30:30.546Z,4.26
2023-09-13T18:32:58.353Z,4.56
2023-09-13T18:35:26.088Z,4.24
2023-09-13T18:37:53.812Z,4.55
2023-09-13T18:40:21.558Z,4.45
2023-09-13T18:42:50.004Z,4.44
2023-09-13T18:45:17.732Z,4.54
2023-09-13T18:47:47.046Z,5.00
2023-09-13T18:50:14.810Z,4.75
2023-09-13T18:52:42.543Z,5.26
2023-09-13T18:55:10.632Z,5.01
2023-09-13T19:00:07.550Z,5.02
2023-09-13T19:02:35.302Z,4.97
2023-09-13T19:05:04.618Z,5.18
2023-09-13T19:07:33.839Z,5.19
2023-09-13T19:10:02.401Z,4.99
2023-09-13T19:12:30.307Z,5.08
2023-09-13T19:14:58.235Z,5.30
2023-09-13T19:17:27.208Z,5.14
2023-09-13T19:19:54.987Z,5.36
2023-09-13T19:22:24.660Z,5.06
2023-09-13T19:24:57.484Z,5.07
2023-09-13T19:27:25.727Z,5.25
2023-09-13T19:29:53.716Z,6.15
2023-09-13T19:32:21.506Z,6.14
2023-09-13T19:34:50.436Z,6.62
2023-09-13T19:37:18.269Z,6.82
2023-09-13T19:39:47.444Z,6.76
2023-09-13T19:42:15.389Z,6.66
2023-09-13T19:44:43.773Z,7.22
2023-09-13T19:47:11.539Z,7.25
2023-09-13T19:49:39.232Z,6.91
2023-09-13T19:52:07.089Z,7.28
2023-09-13T19:54:37.431Z,7.11
2023-09-13T19:57:08.457Z,6.64
2023-09-13T19:59:38.537Z,7.22
2023-09-13T20:02:07.641Z,7.21
2023-09-13T20:04:35.535Z,7.57
2023-09-13T20:07:03.378Z,7.00
2023-09-13T20:09:33.988Z,7.25
2023-09-13T20:12:03.202Z,7.32
2023-09-13T20:14:32.422Z,7.11
2023-09-13T20:17:00.492Z,7.48
2023-09-13T20:19:28.344Z,7.71
2023-09-13T20:21:59.542Z,7.60
2023-09-13T20:24:27.447Z,7.41
2023-09-13T20:26:55.375Z,7.35
2023-09-13T20:29:26.013Z,7.39
2023-09-13T20:31:55.258Z,7.22
2023-09-13T20:34:24.715Z,7.17
2023-09-13T20:36:52.681Z,6.94
2023-09-13T20:39:23.983Z,7.57
2023-09-13T20:41:51.825Z,7.15
2023-09-13T20:44:19.597Z,7.07
2023-09-13T20:46:47.352Z,7.12
2023-09-13T20:49:17.351Z,7.22
2023-09-13T20:51:45.142Z,7.51
2023-09-13T20:54:12.943Z,7.22
2023-09-13T20:56:40.647Z,7.38
2023-09-13T20:59:08.408Z,6.82
2023-09-13T21:01:36.302Z,7.21
2023-09-13T21:04:04.393Z,7.27
2023-09-13T21:06:33.659Z,6.91
2023-09-13T21:09:01.446Z,6.99
2023-09-13T21:11:29.159Z,7.36
2023-09-13T21:13:56.845Z,7.25
2023-09-13T21:16:27.730Z,7.39
2023-09-13T21:18:56.098Z,7.22
2023-09-13T21:21:23.950Z,7.44
2023-09-13T21:23:53.207Z,7.74
2023-09-13T21:26:21.363Z,7.43
2023-09-13T21:28:49.440Z,7.19
2023-09-13T21:31:17.321Z,7.13
2023-09-13T21:33:46.657Z,7.40
2023-09-13T21:36:15.856Z,7.20
2023-09-13T21:38:44.613Z,7.43
2023-09-13T21:41:14.025Z,7.69
2023-09-13T21:43:41.772Z,7.23
2023-09-13T21:46:09.883Z,7.34
2023-09-13T21:48:41.839Z,7.51
2023-09-13T21:51:11.605Z,7.10
2023-09-13T21:53:39.418Z,7.30
2023-09-13T21:56:08.756Z,7.46
2023-09-13T21:58:38.209Z,7.59
2023-09-13T22:01:06.104Z,7.49
2023-09-13T22:03:35.071Z,7.08
2023-09-13T22:06:03.158Z,7.29
2023-09-13T22:08:31.201Z,7.31
2023-09-13T22:11:02.583Z,7.57
2023-09-13T22:13:30.422Z,7.32
2023-09-13T22:15:59.685Z,7.46
2023-09-13T22:18:27.695Z,7.49
2023-09-13T22:20:55.982Z,7.92
2023-09-13T22:23:28.161Z,7.58
2023-09-13T22:25:56.060Z,7.42
2023-09-13T22:28:24.269Z,7.54
2023-09-13T22:30:52.105Z,7.80
2023-09-13T22:33:21.398Z,7.79
2023-09-13T22:35:49.188Z,8.04
2023-09-13T22:38:16.998Z,7.90
2023-09-13T22:40:44.853Z,7.80
2023-09-13T22:43:12.706Z,7.77
2023-09-13T22:45:40.734Z,8.06
2023-09-13T22:48:10.978Z,8.36
2023-09-13T22:50:40.557Z,8.26
2023-09-13T22:53:08.404Z,8.22
2023-09-13T22:55:39.037Z,8.61
2023-09-13T23:00:39.875Z,8.71
2023-09-13T23:03:07.827Z,8.59
2023-09-13T23:05:41.549Z,8.65
2023-09-13T23:08:14.133Z,8.58
2023-09-13T23:10:42.769Z,8.81
2023-09-13T23:13:12.273Z,8.39
2023-09-13T23:15:40.123Z,8.85
2023-09-13T23:18:07.918Z,8.90
2023-09-13T23:20:38.084Z,8.90
2023-09-13T23:23:10.142Z,8.43
2023-09-13T23:25:40.264Z,9.05
2023-09-13T23:28:08.849Z,9.00
2023-09-13T23:30:40.851Z,9.82
2023-09-13T23:33:13.683Z,9.54
2023-09-13T23:35:41.471Z,9.43
2023-09-13T23:38:09.238Z,9.50
2023-09-13T23:40:37.904Z,9.73
2023-09-13T23:43:07.232Z,9.44
2023-09-13T23:45:36.159Z,9.67
2023-09-13T23:48:07.087Z,9.94
2023-09-13T23:50:37.602Z,9.72
2023-09-13T23:53:05.547Z,9.96
2023-09-13T23:55:33.356Z,10.01
2023-09-13T23:58:01.128Z,10.13
